sensor_id;sensor_type;location;lat;lon;timestamp;pressure;altitude;pressure_sealevel;temperature;humidity
47670;BME280;33408;52.062;11.722;2022-12-18T00:02:12;102786.44;;;-5.95;100.00
47670;BME280;33408;52.062;11.722;2022-12-18T00:04:40;102786.19;;;-5.77;100.00
47670;BME280;33408;52.062;11.722;2022-12-18T00:07:06;102781.31;;;-6.07;100.00
47670;BME280;33408;52.062;11.722;2022-12-18T00:09:33;102781.31;;;-6.17;100.00
47670;BME280;33408;52.062;11.722;2022-12-18T00:11:59;102783.44;;;-6.01;100.00
47670;BME280;33408;52.062;11.722;2022-12-18T00:14:26;102776.00;;;-6.30;100.00
47670;BME280;33408;52.062;11.722;2022-12-18T00:16:53;102783.72;;;-6.39;100.00
47670;BME280;33408;52.062;11.722;2022-12-18T00:19:19;102780.03;;;-6.22;100.00
47670;BME280;33408;52.062;11.722;2022-12-18T00:21:47;102785.09;;;-6.32;100.00
47670;BME280;33408;52.062;11.722;2022-12-18T00:24:14;102779.94;;;-6.13;100.00
47670;BME280;33408;52.062;11.722;2022-12-18T00:26:40;102781.31;;;-6.27;100.00
47670;BME280;33408;52.062;11.722;2022-12-18T00:29:10;102774.13;;;-6.02;100.00
47670;BME280;33408;52.062;11.722;2022-12-18T00:31:37;102785.72;;;-5.94;100.00
47670;BME280;33408;52.062;11.722;2022-12-18T00:34:04;102796.41;;;-5.86;100.00
47670;BME280;33408;52.062;11.722;2022-12-18T00:36:32;102792.78;;;-6.10;100.00
47670;BME280;33408;52.062;11.722;2022-12-18T00:39:03;102789.25;;;-6.12;100.00
47670;BME280;33408;52.062;11.722;2022-12-18T00:41:30;102789.53;;;-6.19;100.00
47670;BME280;33408;52.062;11.722;2022-12-18T00:44:16;102789.28;;;-6.22;100.00
47670;BME280;33408;52.062;11.722;2022-12-18T00:46:43;102779.94;;;-6.13;100.00
47670;BME280;33408;52.062;11.722;2022-12-18T00:49:13;102787.50;;;-6.03;100.00
47670;BME280;33408;52.062;11.722;2022-12-18T00:51:40;102779.69;;;-6.16;100.00
47670;BME280;33408;52.062;11.722;2022-12-18T00:54:09;102780.53;;;-6.06;100.00
47670;BME280;33408;52.062;11.722;2022-12-18T00:56:36;102785.06;;;-5.81;100.00
47670;BME280;33408;52.062;11.722;2022-12-18T00:59:03;102783.78;;;-5.86;100.00
47670;BME280;33408;52.062;11.722;2022-12-18T01:01:30;102779.69;;;-6.16;100.00
47670;BME280;33408;52.062;11.722;2022-12-18T01:03:58;102785.34;;;-6.09;100.00
47670;BME280;33408;52.062;11.722;2022-12-18T01:06:25;102785.22;;;-6.00;100.00
47670;BME280;33408;52.062;11.722;2022-12-18T01:08:51;102790.41;;;-5.98;100.00
47670;BME280;33408;52.062;11.722;2022-12-18T01:11:20;102786.22;;;-5.98;100.00
47670;BME280;33408;52.062;11.722;2022-12-18T01:13:47;102801.91;;;-6.02;100.00
47670;BME280;33408;52.062;11.722;2022-12-18T01:16:16;102801.63;;;-6.15;100.00
47670;BME280;33408;52.062;11.722;2022-12-18T01:18:43;102804.19;;;-6.05;100.00
47670;BME280;33408;52.062;11.722;2022-12-18T01:21:11;102799.00;;;-5.96;100.00
47670;BME280;33408;52.062;11.722;2022-12-18T01:23:38;102806.91;;;-5.92;100.00
47670;BME280;33408;52.062;11.722;2022-12-18T01:26:06;102818.03;;;-5.79;100.00
47670;BME280;33408;52.062;11.722;2022-12-18T01:28:34;102810.22;;;-6.03;100.00
47670;BME280;33408;52.062;11.722;2022-12-18T01:31:15;102816.16;;;-6.13;100.00
47670;BME280;33408;52.062;11.722;2022-12-18T01:33:43;102816.66;;;-6.07;100.00
47670;BME280;33408;52.062;11.722;2022-12-18T01:36:15;102817.25;;;-6.30;100.00
47670;BME280;33408;52.062;11.722;2022-12-18T01:38:42;102814.00;;;-6.39;100.00
47670;BME280;33408;52.062;11.722;2022-12-18T01:41:09;102819.78;;;-6.30;100.00
47670;BME280;33408;52.062;11.722;2022-12-18T01:43:50;102827.13;;;-6.22;100.00
47670;BME280;33408;52.062;11.722;2022-12-18T01:46:18;102831.53;;;-6.20;100.00
47670;BME280;33408;52.062;11.722;2022-12-18T01:48:47;102837.44;;;-6.40;100.00
47670;BME280;33408;52.062;11.722;2022-12-18T01:51:14;102832.28;;;-6.31;100.00
47670;BME280;33408;52.062;11.722;2022-12-18T01:53:42;102841.41;;;-6.13;100.00
47670;BME280;33408;52.062;11.722;2022-12-18T01:56:12;102839.88;;;-6.11;100.00
47670;BME280;33408;52.062;11.722;2022-12-18T01:58:46;102847.59;;;-6.09;100.00
47670;BME280;33408;52.062;11.722;2022-12-18T02:01:16;102841.16;;;-6.16;100.00
47670;BME280;33408;52.062;11.722;2022-12-18T02:03:44;102839.50;;;-6.26;100.00
47670;BME280;33408;52.062;11.722;2022-12-18T02:06:15;102837.59;;;-6.38;100.00
47670;BME280;33408;52.062;11.722;2022-12-18T02:08:49;102841.38;;;-6.23;100.00
47670;BME280;33408;52.062;11.722;2022-12-18T02:11:23;102841.75;;;-6.18;100.00
47670;BME280;33408;52.062;11.722;2022-12-18T02:14:03;102843.41;;;-6.19;100.00
47670;BME280;33408;52.062;11.722;2022-12-18T02:16:39;102850.63;;;-6.13;100.00
47670;BME280;33408;52.062;11.722;2022-12-18T02:19:34;102846.28;;;-6.35;100.00
47670;BME280;33408;52.062;11.722;2022-12-18T02:22:21;102845.81;;;-6.20;100.00
47670;BME280;33408;52.062;11.722;2022-12-18T02:24:58;102843.50;;;-6.38;100.00
47670;BME280;33408;52.062;11.722;2022-12-18T02:27:28;102838.75;;;-6.14;100.00
47670;BME280;33408;52.062;11.722;2022-12-18T02:29:57;102832.06;;;-6.24;100.00
47670;BME280;33408;52.062;11.722;2022-12-18T02:32:29;102823.56;;;-6.35;100.00
47670;BME280;33408;52.062;11.722;2022-12-18T02:34:59;102825.31;;;-6.44;100.00
47670;BME280;33408;52.062;11.722;2022-12-18T02:37:28;102818.38;;;-6.47;100.00
47670;BME280;33408;52.062;11.722;2022-12-18T02:39:56;102833.06;;;-6.32;100.00
47670;BME280;33408;52.062;11.722;2022-12-18T02:42:27;102836.97;;;-6.15;100.00
47670;BME280;33408;52.062;11.722;2022-12-18T02:44:57;102830.66;;;-6.31;100.00
47670;BME280;33408;52.062;11.722;2022-12-18T02:47:25;102826.97;;;-6.34;100.00
47670;BME280;33408;52.062;11.722;2022-12-18T02:50:02;102819.28;;;-6.36;100.00
47670;BME280;33408;52.062;11.722;2022-12-18T02:52:35;102819.03;;;-6.39;100.00
47670;BME280;33408;52.062;11.722;2022-12-18T02:55:15;102815.00;;;-6.37;100.00
47670;BME280;33408;52.062;11.722;2022-12-18T02:57:49;102825.34;;;-6.34;100.00
47670;BME280;33408;52.062;11.722;2022-12-18T03:00:18;102829.00;;;-6.20;100.00
47670;BME280;33408;52.062;11.722;2022-12-18T03:02:50;102832.31;;;-6.21;100.00
47670;BME280;33408;52.062;11.722;2022-12-18T03:05:23;102832.06;;;-6.24;100.00
47670;BME280;33408;52.062;11.722;2022-12-18T03:07:56;102831.66;;;-6.29;100.00
47670;BME280;33408;52.062;11.722;2022-12-18T03:10:26;102836.47;;;-6.11;100.00
47670;BME280;33408;52.062;11.722;2022-12-18T03:13:00;102840.75;;;-6.31;100.00
47670;BME280;33408;52.062;11.722;2022-12-18T03:15:31;102843.16;;;-6.32;100.00
47670;BME280;33408;52.062;11.722;2022-12-18T03:18:04;102846.88;;;-6.48;100.00
47670;BME280;33408;52.062;11.722;2022-12-18T03:20:34;102844.63;;;-6.34;100.00
47670;BME280;33408;52.062;11.722;2022-12-18T03:23:07;102843.63;;;-6.47;100.00
47670;BME280;33408;52.062;11.722;2022-12-18T03:25:39;102847.19;;;-6.14;100.00
47670;BME280;33408;52.062;11.722;2022-12-18T03:28:12;102849.09;;;-6.11;100.00
47670;BME280;33408;52.062;11.722;2022-12-18T03:30:41;102865.25;;;-6.19;100.00
47670;BME280;33408;52.062;11.722;2022-12-18T03:33:13;102860.31;;;-5.87;100.00
47670;BME280;33408;52.062;11.722;2022-12-18T03:35:44;102859.69;;;-6.15;100.00
47670;BME280;33408;52.062;11.722;2022-12-18T03:38:11;102866.00;;;-6.20;100.00
47670;BME280;33408;52.062;11.722;2022-12-18T03:40:46;102856.41;;;-6.25;100.00
47670;BME280;33408;52.062;11.722;2022-12-18T03:43:20;102846.06;;;-6.17;100.00
47670;BME280;33408;52.062;11.722;2022-12-18T03:45:53;102847.72;;;-6.18;100.00
47670;BME280;33408;52.062;11.722;2022-12-18T03:48:27;102845.06;;;-6.19;100.00
47670;BME280;33408;52.062;11.722;2022-12-18T03:50:57;102858.81;;;-6.06;100.00
47670;BME280;33408;52.062;11.722;2022-12-18T03:53:32;102855.38;;;-6.27;100.00
47670;BME280;33408;52.062;11.722;2022-12-18T03:56:04;102856.91;;;-6.39;100.00
47670;BME280;33408;52.062;11.722;2022-12-18T03:58:33;102857.84;;;-6.47;100.00
47670;BME280;33408;52.062;11.722;2022-12-18T04:01:04;102848.88;;;-6.64;100.00
47670;BME280;33408;52.062;11.722;2022-12-18T04:03:35;102851.53;;;-6.52;100.00
47670;BME280;33408;52.062;11.722;2022-12-18T04:06:03;102848.81;;;-6.35;100.00
47670;BME280;33408;52.062;11.722;2022-12-18T04:08:31;102849.09;;;-6.11;100.00
47670;BME280;33408;52.062;11.722;2022-12-18T04:10:59;102845.81;;;-6.10;100.00
47670;BME280;33408;52.062;11.722;2022-12-18T04:13:28;102839.59;;;-6.34;100.00
47670;BME280;33408;52.062;11.722;2022-12-18T04:15:57;102845.25;;;-6.47;100.00
47670;BME280;33408;52.062;11.722;2022-12-18T04:18:23;102843.00;;;-6.84;100.00
47670;BME280;33408;52.062;11.722;2022-12-18T04:20:50;102837.72;;;-6.76;100.00
47670;BME280;33408;52.062;11.722;2022-12-18T04:23:16;102839.47;;;-6.86;100.00
47670;BME280;33408;52.062;11.722;2022-12-18T04:25:43;102842.72;;;-6.87;100.00
47670;BME280;33408;52.062;11.722;2022-12-18T04:28:09;102852.94;;;-6.56;100.00
47670;BME280;33408;52.062;11.722;2022-12-18T04:30:36;102853.38;;;-6.70;100.00
47670;BME280;33408;52.062;11.722;2022-12-18T04:33:08;102839.53;;;-6.94;100.00
47670;BME280;33408;52.062;11.722;2022-12-18T04:35:34;102838.75;;;-7.04;100.00
47670;BME280;33408;52.062;11.722;2022-12-18T04:38:01;102834.75;;;-7.02;100.00
47670;BME280;33408;52.062;11.722;2022-12-18T04:40:28;102836.09;;;-7.05;100.00
47670;BME280;33408;52.062;11.722;2022-12-18T04:42:54;102834.22;;;-6.98;100.00
47670;BME280;33408;52.062;11.722;2022-12-18T04:45:21;102832.97;;;-7.03;100.00
47670;BME280;33408;52.062;11.722;2022-12-18T04:47:47;102840.66;;;-7.01;100.00
47670;BME280;33408;52.062;11.722;2022-12-18T04:50:15;102839.91;;;-7.00;100.00
47670;BME280;33408;52.062;11.722;2022-12-18T04:52:42;102842.38;;;-7.10;100.00
47670;BME280;33408;52.062;11.722;2022-12-18T04:55:09;102852.66;;;-6.99;100.00
47670;BME280;33408;52.062;11.722;2022-12-18T04:57:35;102866.53;;;-6.93;100.00
47670;BME280;33408;52.062;11.722;2022-12-18T05:00:03;102870.44;;;-6.57;100.00
47670;BME280;33408;52.062;11.722;2022-12-18T05:02:31;102869.97;;;-6.53;100.00
47670;BME280;33408;52.062;11.722;2022-12-18T05:04:57;102868.59;;;-6.50;100.00
47670;BME280;33408;52.062;11.722;2022-12-18T05:07:25;102871.63;;;-6.73;100.00
47670;BME280;33408;52.062;11.722;2022-12-18T05:09:52;102878.25;;;-6.65;100.00
47670;BME280;33408;52.062;11.722;2022-12-18T05:12:19;102880.97;;;-6.43;100.00
47670;BME280;33408;52.062;11.722;2022-12-18T05:14:52;102888.97;;;-6.28;100.00
47670;BME280;33408;52.062;11.722;2022-12-18T05:17:19;102886.38;;;-6.48;100.00
47670;BME280;33408;52.062;11.722;2022-12-18T05:19:45;102873.38;;;-6.53;100.00
47670;BME280;33408;52.062;11.722;2022-12-18T05:22:12;102868.13;;;-6.75;100.00
47670;BME280;33408;52.062;11.722;2022-12-18T05:24:40;102864.34;;;-6.70;100.00
47670;BME280;33408;52.062;11.722;2022-12-18T05:27:07;102863.16;;;-6.84;100.00
47670;BME280;33408;52.062;11.722;2022-12-18T05:29:33;102858.66;;;-6.78;100.00
47670;BME280;33408;52.062;11.722;2022-12-18T05:32:00;102865.59;;;-6.75;100.00
47670;BME280;33408;52.062;11.722;2022-12-18T05:34:26;102864.06;;;-7.02;100.00
47670;BME280;33408;52.062;11.722;2022-12-18T05:36:53;102866.69;;;-6.82;100.00
47670;BME280;33408;52.062;11.722;2022-12-18T05:39:20;102858.59;;;-6.88;100.00
47670;BME280;33408;52.062;11.722;2022-12-18T05:41:48;102862.81;;;-6.78;100.00
47670;BME280;33408;52.062;11.722;2022-12-18T05:44:14;102861.63;;;-6.63;100.00
47670;BME280;33408;52.062;11.722;2022-12-18T05:46:41;102865.72;;;-6.73;100.00
47670;BME280;33408;52.062;11.722;2022-12-18T05:49:07;102856.19;;;-6.57;100.00
47670;BME280;33408;52.062;11.722;2022-12-18T05:51:34;102868.44;;;-6.62;100.00
47670;BME280;33408;52.062;11.722;2022-12-18T05:54:00;102870.44;;;-6.68;100.00
47670;BME280;33408;52.062;11.722;2022-12-18T05:56:27;102874.81;;;-6.75;100.00
47670;BME280;33408;52.062;11.722;2022-12-18T05:58:55;102892.09;;;-6.70;100.00
47670;BME280;33408;52.062;11.722;2022-12-18T06:01:24;102896.94;;;-6.63;100.00
47670;BME280;33408;52.062;11.722;2022-12-18T06:03:51;102906.44;;;-6.79;100.00
47670;BME280;33408;52.062;11.722;2022-12-18T06:06:20;102899.22;;;-6.85;100.00
47670;BME280;33408;52.062;11.722;2022-12-18T06:08:47;102896.53;;;-6.67;100.00
47670;BME280;33408;52.062;11.722;2022-12-18T06:11:17;102891.22;;;-6.70;100.00
47670;BME280;33408;52.062;11.722;2022-12-18T06:13:45;102894.09;;;-6.47;100.00
47670;BME280;33408;52.062;11.722;2022-12-18T06:16:13;102883.22;;;-6.85;100.00
47670;BME280;33408;52.062;11.722;2022-12-18T06:18:39;102893.19;;;-6.76;100.00
47670;BME280;33408;52.062;11.722;2022-12-18T06:21:06;102887.00;;;-6.80;100.00
47670;BME280;33408;52.062;11.722;2022-12-18T06:23:33;102886.91;;;-6.71;100.00
47670;BME280;33408;52.062;11.722;2022-12-18T06:26:04;102887.72;;;-6.91;100.00
47670;BME280;33408;52.062;11.722;2022-12-18T06:28:30;102884.78;;;-6.96;100.00
47670;BME280;33408;52.062;11.722;2022-12-18T06:30:57;102887.31;;;-6.96;100.00
47670;BME280;33408;52.062;11.722;2022-12-18T06:33:27;102885.31;;;-6.90;100.00
47670;BME280;33408;52.062;11.722;2022-12-18T06:35:54;102883.97;;;-7.05;100.00
47670;BME280;33408;52.062;11.722;2022-12-18T06:38:20;102889.56;;;-6.99;100.00
47670;BME280;33408;52.062;11.722;2022-12-18T06:40:47;102887.81;;;-7.19;100.00
47670;BME280;33408;52.062;11.722;2022-12-18T06:43:14;102891.69;;;-7.04;100.00
47670;BME280;33408;52.062;11.722;2022-12-18T06:45:40;102882.97;;;-7.26;100.00
47670;BME280;33408;52.062;11.722;2022-12-18T06:48:11;102890.88;;;-7.32;100.00
47670;BME280;33408;52.062;11.722;2022-12-18T06:50:41;102890.88;;;-7.32;100.00
47670;BME280;33408;52.062;11.722;2022-12-18T06:53:08;102898.09;;;-7.26;100.00
47670;BME280;33408;52.062;11.722;2022-12-18T06:55:34;102893.88;;;-7.17;100.00
47670;BME280;33408;52.062;11.722;2022-12-18T06:58:01;102894.69;;;-7.08;100.00
47670;BME280;33408;52.062;11.722;2022-12-18T07:00:28;102888.91;;;-7.26;100.00
47670;BME280;33408;52.062;11.722;2022-12-18T07:02:54;102891.16;;;-7.29;100.00
47670;BME280;33408;52.062;11.722;2022-12-18T07:05:21;102890.13;;;-7.31;100.00
47670;BME280;33408;52.062;11.722;2022-12-18T07:07:49;102900.06;;;-7.33;100.00
47670;BME280;33408;52.062;11.722;2022-12-18T07:10:16;102907.56;;;-7.24;100.00
47670;BME280;33408;52.062;11.722;2022-12-18T07:12:42;102905.75;;;-7.16;100.00
47670;BME280;33408;52.062;11.722;2022-12-18T07:15:09;102898.97;;;-7.07;100.00
47670;BME280;33408;52.062;11.722;2022-12-18T07:17:36;102901.97;;;-7.30;100.00
47670;BME280;33408;52.062;11.722;2022-12-18T07:20:03;102895.03;;;-7.33;100.00
47670;BME280;33408;52.062;11.722;2022-12-18T07:22:30;102904.84;;;-7.36;100.00
47670;BME280;33408;52.062;11.722;2022-12-18T07:24:58;102915.59;;;-7.28;100.00
47670;BME280;33408;52.062;11.722;2022-12-18T07:27:24;102918.06;;;-7.19;100.00
47670;BME280;33408;52.062;11.722;2022-12-18T07:29:51;102928.69;;;-7.13;100.00
47670;BME280;33408;52.062;11.722;2022-12-18T07:32:18;102936.91;;;-7.05;100.00
47670;BME280;33408;52.062;11.722;2022-12-18T07:34:44;102938.63;;;-7.15;100.00
47670;BME280;33408;52.062;11.722;2022-12-18T07:37:11;102938.50;;;-7.35;100.00
47670;BME280;33408;52.062;11.722;2022-12-18T07:39:37;102935.97;;;-7.35;100.00
47670;BME280;33408;52.062;11.722;2022-12-18T07:42:08;102941.63;;;-7.19;100.00
47670;BME280;33408;52.062;11.722;2022-12-18T07:44:52;102940.19;;;-7.25;100.00
47670;BME280;33408;52.062;11.722;2022-12-18T07:47:19;102946.06;;;-7.16;100.00
47670;BME280;33408;52.062;11.722;2022-12-18T07:49:45;102941.59;;;-7.38;100.00
47670;BME280;33408;52.062;11.722;2022-12-18T07:52:12;102936.09;;;-7.34;100.00
47670;BME280;33408;52.062;11.722;2022-12-18T07:54:39;102934.56;;;-7.51;100.00
47670;BME280;33408;52.062;11.722;2022-12-18T07:57:06;102940.25;;;-7.53;100.00
47670;BME280;33408;52.062;11.722;2022-12-18T07:59:34;102947.13;;;-7.70;100.00
47670;BME280;33408;52.062;11.722;2022-12-18T08:02:01;102945.03;;;-7.65;100.00
47670;BME280;33408;52.062;11.722;2022-12-18T08:04:27;102946.97;;;-7.71;100.00
47670;BME280;33408;52.062;11.722;2022-12-18T08:06:54;102958.00;;;-7.52;100.00
47670;BME280;33408;52.062;11.722;2022-12-18T08:09:20;102964.59;;;-7.62;100.00
47670;BME280;33408;52.062;11.722;2022-12-18T08:11:47;102962.00;;;-7.54;100.00
47670;BME280;33408;52.062;11.722;2022-12-18T08:14:14;102959.06;;;-7.58;100.00
47670;BME280;33408;52.062;11.722;2022-12-18T08:16:42;102960.00;;;-7.66;100.00
47670;BME280;33408;52.062;11.722;2022-12-18T08:19:12;102957.91;;;-7.62;100.00
47670;BME280;33408;52.062;11.722;2022-12-18T08:21:41;102969.03;;;-7.60;100.00
47670;BME280;33408;52.062;11.722;2022-12-18T08:24:11;102972.91;;;-7.44;100.00
47670;BME280;33408;52.062;11.722;2022-12-18T08:26:37;102974.13;;;-7.49;100.00
47670;BME280;33408;52.062;11.722;2022-12-18T08:29:04;102969.41;;;-7.55;100.00
47670;BME280;33408;52.062;11.722;2022-12-18T08:31:31;102972.78;;;-7.46;100.00
47670;BME280;33408;52.062;11.722;2022-12-18T08:33:59;102964.66;;;-7.52;100.00
47670;BME280;33408;52.062;11.722;2022-12-18T08:36:26;102966.81;;;-7.65;100.00
47670;BME280;33408;52.062;11.722;2022-12-18T08:38:52;102973.50;;;-7.66;100.00
47670;BME280;33408;52.062;11.722;2022-12-18T08:41:19;102973.50;;;-7.66;100.00
47670;BME280;33408;52.062;11.722;2022-12-18T08:43:46;102963.78;;;-7.53;100.00
47670;BME280;33408;52.062;11.722;2022-12-18T08:46:35;102967.03;;;-7.73;100.00
47670;BME280;33408;52.062;11.722;2022-12-18T08:49:03;102958.53;;;-7.64;100.00
47670;BME280;33408;52.062;11.722;2022-12-18T08:51:30;102956.28;;;-7.61;100.00
47670;BME280;33408;52.062;11.722;2022-12-18T08:53:57;102966.00;;;-7.47;100.00
47670;BME280;33408;52.062;11.722;2022-12-18T08:56:23;102967.19;;;-7.52;100.00
47670;BME280;33408;52.062;11.722;2022-12-18T08:58:51;102965.66;;;-7.41;100.00
47670;BME280;33408;52.062;11.722;2022-12-18T09:01:19;102963.06;;;-7.52;100.00
47670;BME280;33408;52.062;11.722;2022-12-18T09:03:45;102962.03;;;-7.35;100.00
47670;BME280;33408;52.062;11.722;2022-12-18T09:06:15;102964.41;;;-7.36;100.00
47670;BME280;33408;52.062;11.722;2022-12-18T09:08:43;102958.69;;;-7.44;100.00
47670;BME280;33408;52.062;11.722;2022-12-18T09:11:13;102961.81;;;-7.46;100.00
47670;BME280;33408;52.062;11.722;2022-12-18T09:13:40;102963.97;;;-7.32;100.00
47670;BME280;33408;52.062;11.722;2022-12-18T09:16:06;102965.84;;;-7.29;100.00
47670;BME280;33408;52.062;11.722;2022-12-18T09:18:33;102955.50;;;-7.33;100.00
47670;BME280;33408;52.062;11.722;2022-12-18T09:21:00;102960.03;;;-7.47;100.00
47670;BME280;33408;52.062;11.722;2022-12-18T09:23:35;102953.59;;;-7.35;100.00
47670;BME280;33408;52.062;11.722;2022-12-18T09:26:01;102955.78;;;-7.29;100.00
47670;BME280;33408;52.062;11.722;2022-12-18T09:28:28;102944.06;;;-7.10;100.00
47670;BME280;33408;52.062;11.722;2022-12-18T09:30:54;102939.50;;;-7.14;100.00
47670;BME280;33408;52.062;11.722;2022-12-18T09:33:21;102935.91;;;-7.07;100.00
47670;BME280;33408;52.062;11.722;2022-12-18T09:35:47;102925.50;;;-7.02;100.00
47670;BME280;33408;52.062;11.722;2022-12-18T09:38:16;102928.31;;;-6.88;100.00
47670;BME280;33408;52.062;11.722;2022-12-18T09:40:49;102930.69;;;-6.71;100.00
47670;BME280;33408;52.062;11.722;2022-12-18T09:43:18;102922.13;;;-6.92;100.00
47670;BME280;33408;52.062;11.722;2022-12-18T09:45:50;102915.22;;;-6.84;100.00
47670;BME280;33408;52.062;11.722;2022-12-18T09:48:22;102915.16;;;-6.75;100.00
47670;BME280;33408;52.062;11.722;2022-12-18T09:50:51;102913.88;;;-6.51;100.00
47670;BME280;33408;52.062;11.722;2022-12-18T09:53:24;102914.34;;;-6.55;100.00
47670;BME280;33408;52.062;11.722;2022-12-18T09:55:54;102907.31;;;-6.49;100.00
47670;BME280;33408;52.062;11.722;2022-12-18T09:58:27;102898.47;;;-6.54;100.00
47670;BME280;33408;52.062;11.722;2022-12-18T10:00:56;102904.19;;;-6.36;100.00
47670;BME280;33408;52.062;11.722;2022-12-18T10:03:23;102894.22;;;-6.35;100.00
47670;BME280;33408;52.062;11.722;2022-12-18T10:05:58;102900.94;;;-6.25;100.00
47670;BME280;33408;52.062;11.722;2022-12-18T10:08:35;102895.75;;;-6.27;100.00
47670;BME280;33408;52.062;11.722;2022-12-18T10:11:25;102896.50;;;-6.38;100.00
47670;BME280;33408;52.062;11.722;2022-12-18T10:13:56;102895.91;;;-6.25;100.00
47670;BME280;33408;52.062;11.722;2022-12-18T10:16:32;102899.59;;;-6.11;100.00
47670;BME280;33408;52.062;11.722;2022-12-18T10:19:17;102890.25;;;-6.12;100.00
47670;BME280;33408;52.062;11.722;2022-12-18T10:21:52;102882.53;;;-6.14;100.00
47670;BME280;33408;52.062;11.722;2022-12-18T10:24:24;102876.09;;;-5.90;100.00
47670;BME280;33408;52.062;11.722;2022-12-18T10:26:59;102872.59;;;-6.02;100.00
47670;BME280;33408;52.062;11.722;2022-12-18T10:29:34;102869.03;;;-5.83;100.00
47670;BME280;33408;52.062;11.722;2022-12-18T10:32:00;102881.53;;;-5.85;100.00
47670;BME280;33408;52.062;11.722;2022-12-18T10:34:27;102878.28;;;-6.05;100.00
47670;BME280;33408;52.062;11.722;2022-12-18T10:36:53;102869.91;;;-5.93;100.00
47670;BME280;33408;52.062;11.722;2022-12-18T10:39:22;102875.09;;;-5.92;100.00
47670;BME280;33408;52.062;11.722;2022-12-18T10:41:50;102868.28;;;-5.82;100.00
47670;BME280;33408;52.062;11.722;2022-12-18T10:44:19;102870.69;;;-5.74;100.00
47670;BME280;33408;52.062;11.722;2022-12-18T10:46:48;102868.25;;;-5.93;100.00
47670;BME280;33408;52.062;11.722;2022-12-18T10:49:20;102875.34;;;-5.78;100.00
47670;BME280;33408;52.062;11.722;2022-12-18T10:51:47;102872.69;;;-5.59;100.00
47670;BME280;33408;52.062;11.722;2022-12-18T10:54:17;102880.91;;;-5.72;100.00
47670;BME280;33408;52.062;11.722;2022-12-18T10:56:45;102881.28;;;-5.57;100.00
47670;BME280;33408;52.062;11.722;2022-12-18T10:59:13;102892.28;;;-5.57;100.00
47670;BME280;33408;52.062;11.722;2022-12-18T11:01:49;102887.84;;;-5.39;100.00
47670;BME280;33408;52.062;11.722;2022-12-18T11:04:20;102904.38;;;-5.32;100.00
47670;BME280;33408;52.062;11.722;2022-12-18T11:06:53;102901.63;;;-5.45;100.00
47670;BME280;33408;52.062;11.722;2022-12-18T11:09:26;102905.00;;;-5.35;100.00
47670;BME280;33408;52.062;11.722;2022-12-18T11:11:55;102914.22;;;-5.15;100.00
47670;BME280;33408;52.062;11.722;2022-12-18T11:14:24;102909.50;;;-5.00;100.00
47670;BME280;33408;52.062;11.722;2022-12-18T11:16:53;102910.06;;;-5.24;100.00
47670;BME280;33408;52.062;11.722;2022-12-18T11:19:28;102905.38;;;-5.30;100.00
47670;BME280;33408;52.062;11.722;2022-12-18T11:21:56;102909.09;;;-5.47;100.00
47670;BME280;33408;52.062;11.722;2022-12-18T11:24:28;102904.00;;;-5.37;100.00
47670;BME280;33408;52.062;11.722;2022-12-18T11:26:57;102895.78;;;-5.24;100.00
47670;BME280;33408;52.062;11.722;2022-12-18T11:29:30;102890.69;;;-5.14;100.00
47670;BME280;33408;52.062;11.722;2022-12-18T11:32:24;102885.28;;;-5.18;100.00
47670;BME280;33408;52.062;11.722;2022-12-18T11:34:59;102884.50;;;-5.17;100.00
47670;BME280;33408;52.062;11.722;2022-12-18T11:37:28;102880.56;;;-5.03;100.00
47670;BME280;33408;52.062;11.722;2022-12-18T11:39:58;102882.69;;;-4.98;100.00
47670;BME280;33408;52.062;11.722;2022-12-18T11:42:32;102888.16;;;-5.03;100.00
47670;BME280;33408;52.062;11.722;2022-12-18T11:45:17;102881.00;;;-4.87;100.00
47670;BME280;33408;52.062;11.722;2022-12-18T11:47:52;102883.41;;;-4.88;100.00
47670;BME280;33408;52.062;11.722;2022-12-18T11:50:24;102879.69;;;-5.04;100.00
47670;BME280;33408;52.062;11.722;2022-12-18T11:52:51;102875.59;;;-4.91;100.00
47670;BME280;33408;52.062;11.722;2022-12-18T11:55:25;102880.16;;;-4.98;100.00
47670;BME280;33408;52.062;11.722;2022-12-18T11:58:00;102883.72;;;-4.73;100.00
47670;BME280;33408;52.062;11.722;2022-12-18T12:00:30;102869.81;;;-4.68;100.00
47670;BME280;33408;52.062;11.722;2022-12-18T12:06:03;102859.47;;;-5.14;100.00
47670;BME280;33408;52.062;11.722;2022-12-18T12:08:44;102851.88;;;-5.04;100.00
47670;BME280;33408;52.062;11.722;2022-12-18T12:11:23;102847.16;;;-4.99;100.00
47670;BME280;33408;52.062;11.722;2022-12-18T12:14:03;102867.31;;;-2.48;100.00
47670;BME280;33408;52.062;11.722;2022-12-18T12:16:39;102865.34;;;1.04;100.00
47670;BME280;33408;52.062;11.722;2022-12-18T12:19:24;102856.00;;;0.29;100.00
47670;BME280;33408;52.062;11.722;2022-12-18T12:22:00;102848.50;;;1.56;100.00
47670;BME280;33408;52.062;11.722;2022-12-18T12:24:39;102836.38;;;1.85;100.00
47670;BME280;33408;52.062;11.722;2022-12-18T12:27:19;102832.72;;;1.63;100.00
47670;BME280;33408;52.062;11.722;2022-12-18T12:30:00;102828.94;;;2.58;100.00
47670;BME280;33408;52.062;11.722;2022-12-18T12:32:38;102823.97;;;1.43;100.00
47670;BME280;33408;52.062;11.722;2022-12-18T12:35:18;102805.53;;;3.43;100.00
47670;BME280;33408;52.062;11.722;2022-12-18T12:37:55;102801.97;;;3.02;98.00
47670;BME280;33408;52.062;11.722;2022-12-18T12:40:27;102797.34;;;3.13;89.58
47670;BME280;33408;52.062;11.722;2022-12-18T12:42:56;102797.19;;;3.88;87.41
47670;BME280;33408;52.062;11.722;2022-12-18T12:45:44;102784.06;;;4.44;87.93
47670;BME280;33408;52.062;11.722;2022-12-18T12:48:18;102782.44;;;4.68;86.04